ENHF

Hammerfest Airport

Hammerfest, Norway
METAR ENHF 211950Z 11007KT 050V170 CAVOK M10/M15 Q1013 RMK WIND 1254FT 17023G38KT
Observed Flight Rules
Jan-21 @ 19:50 UTC (26 minutes ago) Visual Flight Rules
Wind Visibility Clouds
110° at 7 knots 10,000+ meters
  • Clear skies
Temperatures Readings
Current -10°C / 14°F
Dewpoint -15°C / 5°F
Humidity 67%
Altimeter 29.91" Hg
Pressure 1013 hPa
Elevation 81
METAR ENHF 211950Z 11007KT 050V170 CAVOK M10/M15 Q1013 RMK WIND 1254FT 17023G38KT
Observed Flight Rules
Jan-21 @ 19:50 UTC
(26 minutes ago)
VFR
Wind Visibility
110° at 7 knots 10,000+ meters
Clouds
  • Clear skies
Temperature Dewpoint
-10°C / 14°F -15°C / 5°F
Humidity Altimeter Pressure
67% 29.91" Hg 1013 hPa